Malaysia Virtual Airlines Airport Information Service

Denpasar / Ngurah-Rai

ICAO: WADD Country: Indonesia
Latitude: -8.75 Longitude: 115.167
Latest Arrival : AK378 (WMKK-WADD) Latest Departure : MH714 (WADD-WMKK)


WX CaptureLIVE
Data provided by noaa.gov | Fetched at 05:44:41

METAR : WADD 290500Z 14006KT 8000 -RA BKN016 26/24 Q1008 NOSIG

TAF : WADD 282300Z 2900/3000 VRB05KT 8000 -RA SCT016 TEMPO 2903/2907 5000 RA FEW014CB BKN014 BECMG 2905/2907 NSW TEMPO 2920/3000 5000 RA BKN014


Runway Data for WADD
Data provided by openaviationdata.com

Runway ID Mag Var Hdg Length Elevation Surface ILS Freq ILS Id ILS Slope
9 1 86° 9829 ft 14 ft Asphalt -- -- --
27 1 266° 9829 ft 14 ft Asphalt 110.3 IDPS 3

Denpasar / Ngurah-Rai, Indonesia
Use only for reference purposes



Not for navigational purposes.